Kempsey, New South Wales

1:57 AM AEST on September 20, 2014 (GMT +1000)
South Kempsey | Change Station
CLOSE
Current Station
Personal Weather Station
Location: SOUTH KEMPSEY, NEW SOUTH WALES
Elevation: 144 ft
Nearby Weather Stations

Elev 144 ft 31.11 °S, 152.87 °E | Updated 2 seconds ago

Clear
Clear
42.3 °F
Feels Like 42 °F
N
0.0
Wind Variable Wind from ENE
Gusts 0.0 mph

Today
High -- | Low -- °F
--% Chance of Precip.
Yesterday
High -- | Low -- °F
Precip. -- in
5:41 AM 5:43 PM
Waning Crescent, 18% visible
Pressure 30.15 in
Visibility -9999.0 miles
Clouds
Windchill 42 °F
Dew Point 40 °F
Humidity 90%
Rainfall 0.00 in
Snow Depth Not available.
UV 0.0 out of 12
Pollen Not available.
Air Quality Not available.
Flu Activity Not available.
METAR YTRE 191500Z AUTO 33003KT //// // NCD 06/05 Q1021

More Conditions Fewer Conditions

Pressure 30.15 in
Visibility -9999.0 miles
Clouds
Windchill 42 °F
Dew Point 40 °F
Humidity 90%
Rainfall 0.00 in
Snow Depth Not available.
UV 0.0 out of 12
Pollen Not available.
Air Quality Not available.
Flu Activity Not available.
METAR YTRE 191500Z AUTO 33003KT //// // NCD 06/05 Q1021

More Conditions Fewer Conditions

10-Day Weather Forecast

Almanac

Astronomy

Sep. 20, 2014 Rise Set
Actual Time 5:41 AM AEST 5:43 PM AEST
Civil Twilight 5:17 AM AEST 6:07 PM AEST
Nautical Twilight 4:49 AM AEST 6:35 PM AEST
Astronomical Twilight 4:21 AM AEST 7:04 PM AEST
Moon 3:00 AM AEST (9/20) 2:15 PM AEST (9/20)
Length of Visible Light 12h 50m
Length of Day
12h 01m
Tomorrow will be 1m 52s longer.
Waning Crescent, 18% of the Moon is Illuminated
Sep 19
Waning Crescent
Sep 24
New
Oct 1
First Quarter
Oct 8
Full
Oct 15
Last Quarter

Yesterday's Extremes

Country Highs Country Lows

Community

WunderPhotos

Upload Photos

1,754,637 photos uploaded!

WunderBlogs® & News

By Dr. Jeff Masters
Director of Meteorology, Weather Underground
By Kari Strenfel
Meteorologist, Weather Underground
By Christopher C. Burt
Weather Historian, Weather Underground
September 19, 2014
September 19, 2014
September 19, 2014

Nearby

Snow Depth

Not available.

Earthquake Activity

City Distance Mag. Time & Date
No recent earthquake activity has been reported nearby.
Minimum magnitude displayed is 2.5.

Coastal Water Temperatures

Place Temperature
No Stations Reporting

Nearby Weather Stations